sensor_id;sensor_type;location;lat;lon;timestamp;P1;durP1;ratioP1;P2;durP2;ratioP2
30096;SDS011;16915;51.466;3.610;2023-09-08T00:00:47;14.52;;;10.93;;
30096;SDS011;16915;51.466;3.610;2023-09-08T00:03:13;12.80;;;11.50;;
30096;SDS011;16915;51.466;3.610;2023-09-08T00:05:38;13.88;;;12.07;;
30096;SDS011;16915;51.466;3.610;2023-09-08T00:08:04;14.55;;;11.43;;
30096;SDS011;16915;51.466;3.610;2023-09-08T00:10:30;13.23;;;10.88;;
30096;SDS011;16915;51.466;3.610;2023-09-08T00:12:55;13.80;;;11.45;;
30096;SDS011;16915;51.466;3.610;2023-09-08T00:15:23;13.50;;;12.00;;
30096;SDS011;16915;51.466;3.610;2023-09-08T00:17:49;17.15;;;13.27;;
30096;SDS011;16915;51.466;3.610;2023-09-08T00:20:14;17.90;;;13.73;;
30096;SDS011;16915;51.466;3.610;2023-09-08T00:22:40;18.92;;;12.32;;
30096;SDS011;16915;51.466;3.610;2023-09-08T00:25:06;15.77;;;13.48;;
30096;SDS011;16915;51.466;3.610;2023-09-08T00:27:31;16.23;;;12.13;;
30096;SDS011;16915;51.466;3.610;2023-09-08T00:29:57;15.65;;;12.57;;
30096;SDS011;16915;51.466;3.610;2023-09-08T00:32:23;16.58;;;14.00;;
30096;SDS011;16915;51.466;3.610;2023-09-08T00:34:49;21.88;;;16.27;;
30096;SDS011;16915;51.466;3.610;2023-09-08T00:37:14;20.73;;;14.00;;
30096;SDS011;16915;51.466;3.610;2023-09-08T00:39:40;20.15;;;16.08;;
30096;SDS011;16915;51.466;3.610;2023-09-08T00:42:05;19.17;;;15.10;;
30096;SDS011;16915;51.466;3.610;2023-09-08T00:44:34;14.88;;;13.27;;
30096;SDS011;16915;51.466;3.610;2023-09-08T00:47:00;16.15;;;14.45;;
30096;SDS011;16915;51.466;3.610;2023-09-08T00:49:26;17.70;;;14.60;;
30096;SDS011;16915;51.466;3.610;2023-09-08T00:51:51;17.13;;;13.88;;
30096;SDS011;16915;51.466;3.610;2023-09-08T00:54:17;17.00;;;13.40;;
30096;SDS011;16915;51.466;3.610;2023-09-08T00:56:43;20.38;;;13.93;;
30096;SDS011;16915;51.466;3.610;2023-09-08T00:59:10;19.75;;;14.23;;
30096;SDS011;16915;51.466;3.610;2023-09-08T01:01:36;21.33;;;14.63;;
30096;SDS011;16915;51.466;3.610;2023-09-08T01:04:02;17.13;;;14.95;;
30096;SDS011;16915;51.466;3.610;2023-09-08T01:06:27;16.58;;;14.40;;
30096;SDS011;16915;51.466;3.610;2023-09-08T01:08:54;17.30;;;13.77;;
30096;SDS011;16915;51.466;3.610;2023-09-08T01:11:20;18.48;;;13.75;;
30096;SDS011;16915;51.466;3.610;2023-09-08T01:13:47;14.68;;;13.15;;
30096;SDS011;16915;51.466;3.610;2023-09-08T01:16:12;16.70;;;13.43;;
30096;SDS011;16915;51.466;3.610;2023-09-08T01:18:38;21.00;;;14.43;;
30096;SDS011;16915;51.466;3.610;2023-09-08T01:23:59;17.25;;;13.85;;
30096;SDS011;16915;51.466;3.610;2023-09-08T01:26:50;17.35;;;13.63;;
30096;SDS011;16915;51.466;3.610;2023-09-08T01:29:16;17.40;;;14.07;;
30096;SDS011;16915;51.466;3.610;2023-09-08T01:31:43;18.27;;;14.05;;
30096;SDS011;16915;51.466;3.610;2023-09-08T01:34:08;16.08;;;13.52;;
30096;SDS011;16915;51.466;3.610;2023-09-08T01:36:35;17.60;;;13.88;;
30096;SDS011;16915;51.466;3.610;2023-09-08T01:39:02;15.90;;;13.45;;
30096;SDS011;16915;51.466;3.610;2023-09-08T01:41:28;17.95;;;14.00;;
30096;SDS011;16915;51.466;3.610;2023-09-08T01:43:55;17.05;;;13.60;;
30096;SDS011;16915;51.466;3.610;2023-09-08T01:46:20;17.50;;;14.23;;
30096;SDS011;16915;51.466;3.610;2023-09-08T01:48:46;14.23;;;12.82;;
30096;SDS011;16915;51.466;3.610;2023-09-08T01:51:12;17.92;;;12.75;;
30096;SDS011;16915;51.466;3.610;2023-09-08T01:53:37;14.40;;;12.93;;
30096;SDS011;16915;51.466;3.610;2023-09-08T01:56:03;18.55;;;13.57;;
30096;SDS011;16915;51.466;3.610;2023-09-08T01:58:28;21.73;;;15.15;;
30096;SDS011;16915;51.466;3.610;2023-09-08T02:00:55;17.88;;;14.15;;
30096;SDS011;16915;51.466;3.610;2023-09-08T02:03:26;20.88;;;16.95;;
30096;SDS011;16915;51.466;3.610;2023-09-08T02:05:52;19.27;;;16.85;;
30096;SDS011;16915;51.466;3.610;2023-09-08T02:08:18;21.95;;;17.92;;
30096;SDS011;16915;51.466;3.610;2023-09-08T02:10:44;22.40;;;17.25;;
30096;SDS011;16915;51.466;3.610;2023-09-08T02:13:09;19.80;;;17.45;;
30096;SDS011;16915;51.466;3.610;2023-09-08T02:15:35;20.77;;;16.90;;
30096;SDS011;16915;51.466;3.610;2023-09-08T02:18:01;25.75;;;18.25;;
30096;SDS011;16915;51.466;3.610;2023-09-08T02:20:27;22.30;;;17.20;;
30096;SDS011;16915;51.466;3.610;2023-09-08T02:22:53;21.70;;;18.77;;
30096;SDS011;16915;51.466;3.610;2023-09-08T02:25:19;22.02;;;19.20;;
30096;SDS011;16915;51.466;3.610;2023-09-08T02:27:45;26.00;;;19.52;;
30096;SDS011;16915;51.466;3.610;2023-09-08T02:30:11;21.83;;;18.52;;
30096;SDS011;16915;51.466;3.610;2023-09-08T02:32:36;21.45;;;18.45;;
30096;SDS011;16915;51.466;3.610;2023-09-08T02:35:02;23.67;;;19.38;;
30096;SDS011;16915;51.466;3.610;2023-09-08T02:37:28;23.30;;;18.90;;
30096;SDS011;16915;51.466;3.610;2023-09-08T02:39:53;19.35;;;17.25;;
30096;SDS011;16915;51.466;3.610;2023-09-08T02:42:19;24.08;;;19.27;;
30096;SDS011;16915;51.466;3.610;2023-09-08T02:44:44;24.92;;;18.95;;
30096;SDS011;16915;51.466;3.610;2023-09-08T02:47:10;23.08;;;19.60;;
30096;SDS011;16915;51.466;3.610;2023-09-08T02:49:36;25.88;;;19.83;;
30096;SDS011;16915;51.466;3.610;2023-09-08T02:52:01;27.60;;;20.80;;
30096;SDS011;16915;51.466;3.610;2023-09-08T02:54:27;23.83;;;19.95;;
30096;SDS011;16915;51.466;3.610;2023-09-08T02:56:53;24.67;;;19.58;;
30096;SDS011;16915;51.466;3.610;2023-09-08T02:59:18;28.02;;;21.25;;
30096;SDS011;16915;51.466;3.610;2023-09-08T03:01:44;28.42;;;22.73;;
30096;SDS011;16915;51.466;3.610;2023-09-08T03:04:09;35.88;;;23.27;;
30096;SDS011;16915;51.466;3.610;2023-09-08T03:06:35;28.00;;;22.98;;
30096;SDS011;16915;51.466;3.610;2023-09-08T03:09:01;30.75;;;23.08;;
30096;SDS011;16915;51.466;3.610;2023-09-08T03:11:26;30.13;;;23.58;;
30096;SDS011;16915;51.466;3.610;2023-09-08T03:13:52;36.40;;;25.50;;
30096;SDS011;16915;51.466;3.610;2023-09-08T03:16:17;30.17;;;23.23;;
30096;SDS011;16915;51.466;3.610;2023-09-08T03:18:43;32.33;;;24.70;;
30096;SDS011;16915;51.466;3.610;2023-09-08T03:21:08;31.70;;;24.17;;
30096;SDS011;16915;51.466;3.610;2023-09-08T03:23:43;32.03;;;24.35;;
30096;SDS011;16915;51.466;3.610;2023-09-08T03:26:09;32.90;;;25.55;;
30096;SDS011;16915;51.466;3.610;2023-09-08T03:28:35;33.03;;;25.15;;
30096;SDS011;16915;51.466;3.610;2023-09-08T03:31:02;33.67;;;25.85;;
30096;SDS011;16915;51.466;3.610;2023-09-08T03:33:28;33.70;;;26.25;;
30096;SDS011;16915;51.466;3.610;2023-09-08T03:35:54;36.38;;;26.67;;
30096;SDS011;16915;51.466;3.610;2023-09-08T03:38:20;38.67;;;27.02;;
30096;SDS011;16915;51.466;3.610;2023-09-08T03:40:48;30.23;;;24.33;;
30096;SDS011;16915;51.466;3.610;2023-09-08T03:43:14;33.30;;;24.63;;
30096;SDS011;16915;51.466;3.610;2023-09-08T03:45:39;29.60;;;23.48;;
30096;SDS011;16915;51.466;3.610;2023-09-08T03:48:06;34.03;;;26.00;;
30096;SDS011;16915;51.466;3.610;2023-09-08T03:50:31;38.72;;;25.42;;
30096;SDS011;16915;51.466;3.610;2023-09-08T03:52:57;30.85;;;24.52;;
30096;SDS011;16915;51.466;3.610;2023-09-08T03:55:23;33.53;;;24.25;;
30096;SDS011;16915;51.466;3.610;2023-09-08T03:57:48;32.33;;;24.73;;
30096;SDS011;16915;51.466;3.610;2023-09-08T04:00:14;32.65;;;24.27;;
30096;SDS011;16915;51.466;3.610;2023-09-08T04:02:49;29.52;;;22.92;;
30096;SDS011;16915;51.466;3.610;2023-09-08T04:05:16;32.08;;;23.55;;
30096;SDS011;16915;51.466;3.610;2023-09-08T04:07:42;30.23;;;24.10;;
30096;SDS011;16915;51.466;3.610;2023-09-08T04:10:09;31.92;;;22.95;;
30096;SDS011;16915;51.466;3.610;2023-09-08T04:12:34;36.20;;;25.95;;
30096;SDS011;16915;51.466;3.610;2023-09-08T04:15:00;40.10;;;29.10;;
30096;SDS011;16915;51.466;3.610;2023-09-08T04:17:25;39.25;;;28.20;;
30096;SDS011;16915;51.466;3.610;2023-09-08T04:19:51;36.10;;;26.33;;
30096;SDS011;16915;51.466;3.610;2023-09-08T04:22:17;36.13;;;27.05;;
30096;SDS011;16915;51.466;3.610;2023-09-08T04:24:42;34.65;;;27.77;;
30096;SDS011;16915;51.466;3.610;2023-09-08T04:27:08;34.45;;;25.83;;
30096;SDS011;16915;51.466;3.610;2023-09-08T04:29:35;36.47;;;26.70;;
30096;SDS011;16915;51.466;3.610;2023-09-08T04:32:01;37.22;;;26.10;;
30096;SDS011;16915;51.466;3.610;2023-09-08T04:34:33;35.83;;;25.48;;
30096;SDS011;16915;51.466;3.610;2023-09-08T04:37:05;32.97;;;24.45;;
30096;SDS011;16915;51.466;3.610;2023-09-08T04:39:32;33.80;;;24.25;;
30096;SDS011;16915;51.466;3.610;2023-09-08T04:41:58;32.88;;;24.33;;
30096;SDS011;16915;51.466;3.610;2023-09-08T04:44:24;33.38;;;23.88;;
30096;SDS011;16915;51.466;3.610;2023-09-08T04:46:50;32.42;;;24.20;;
30096;SDS011;16915;51.466;3.610;2023-09-08T04:49:16;32.63;;;25.58;;
30096;SDS011;16915;51.466;3.610;2023-09-08T04:51:42;31.10;;;25.35;;
30096;SDS011;16915;51.466;3.610;2023-09-08T04:54:08;34.33;;;25.08;;
30096;SDS011;16915;51.466;3.610;2023-09-08T04:56:34;37.35;;;26.30;;
30096;SDS011;16915;51.466;3.610;2023-09-08T04:58:59;37.17;;;25.98;;
30096;SDS011;16915;51.466;3.610;2023-09-08T05:01:26;36.08;;;25.83;;
30096;SDS011;16915;51.466;3.610;2023-09-08T05:03:52;34.92;;;26.80;;
30096;SDS011;16915;51.466;3.610;2023-09-08T05:06:18;39.03;;;27.95;;
30096;SDS011;16915;51.466;3.610;2023-09-08T05:08:43;39.90;;;27.38;;
30096;SDS011;16915;51.466;3.610;2023-09-08T05:11:09;34.22;;;26.60;;
30096;SDS011;16915;51.466;3.610;2023-09-08T05:13:35;39.03;;;27.75;;
30096;SDS011;16915;51.466;3.610;2023-09-08T05:16:01;33.70;;;27.42;;
30096;SDS011;16915;51.466;3.610;2023-09-08T05:18:38;38.72;;;27.98;;
30096;SDS011;16915;51.466;3.610;2023-09-08T05:21:05;36.30;;;27.00;;
30096;SDS011;16915;51.466;3.610;2023-09-08T05:23:31;39.65;;;27.25;;
30096;SDS011;16915;51.466;3.610;2023-09-08T05:25:56;38.55;;;26.02;;
30096;SDS011;16915;51.466;3.610;2023-09-08T05:28:22;37.72;;;28.33;;
30096;SDS011;16915;51.466;3.610;2023-09-08T05:30:50;36.25;;;27.08;;
30096;SDS011;16915;51.466;3.610;2023-09-08T05:33:16;35.72;;;27.65;;
30096;SDS011;16915;51.466;3.610;2023-09-08T05:35:42;39.28;;;26.70;;
30096;SDS011;16915;51.466;3.610;2023-09-08T05:38:07;37.05;;;27.75;;
30096;SDS011;16915;51.466;3.610;2023-09-08T05:40:34;40.85;;;28.30;;
30096;SDS011;16915;51.466;3.610;2023-09-08T05:43:00;41.95;;;29.83;;
30096;SDS011;16915;51.466;3.610;2023-09-08T05:45:25;41.97;;;29.83;;
30096;SDS011;16915;51.466;3.610;2023-09-08T05:47:51;47.88;;;31.85;;
30096;SDS011;16915;51.466;3.610;2023-09-08T05:50:17;50.47;;;32.90;;
30096;SDS011;16915;51.466;3.610;2023-09-08T05:52:43;46.67;;;33.00;;
30096;SDS011;16915;51.466;3.610;2023-09-08T05:55:08;49.60;;;32.85;;
30096;SDS011;16915;51.466;3.610;2023-09-08T05:57:34;45.45;;;32.33;;
30096;SDS011;16915;51.466;3.610;2023-09-08T06:00:01;47.75;;;32.92;;
30096;SDS011;16915;51.466;3.610;2023-09-08T06:02:28;45.80;;;32.65;;
30096;SDS011;16915;51.466;3.610;2023-09-08T06:04:56;43.25;;;30.92;;
30096;SDS011;16915;51.466;3.610;2023-09-08T06:07:22;43.72;;;30.63;;
30096;SDS011;16915;51.466;3.610;2023-09-08T06:09:47;38.00;;;28.70;;
30096;SDS011;16915;51.466;3.610;2023-09-08T06:12:13;39.65;;;30.38;;
30096;SDS011;16915;51.466;3.610;2023-09-08T06:14:38;46.45;;;32.00;;
30096;SDS011;16915;51.466;3.610;2023-09-08T06:17:04;44.75;;;32.28;;
30096;SDS011;16915;51.466;3.610;2023-09-08T06:19:30;49.78;;;29.83;;
30096;SDS011;16915;51.466;3.610;2023-09-08T06:21:55;39.42;;;30.17;;
30096;SDS011;16915;51.466;3.610;2023-09-08T06:24:21;42.15;;;31.30;;
30096;SDS011;16915;51.466;3.610;2023-09-08T06:26:47;43.08;;;30.95;;
30096;SDS011;16915;51.466;3.610;2023-09-08T06:29:14;44.17;;;29.33;;
30096;SDS011;16915;51.466;3.610;2023-09-08T06:31:40;40.72;;;28.55;;
30096;SDS011;16915;51.466;3.610;2023-09-08T06:34:05;40.40;;;28.70;;
30096;SDS011;16915;51.466;3.610;2023-09-08T06:36:31;36.17;;;25.90;;
30096;SDS011;16915;51.466;3.610;2023-09-08T06:38:56;34.55;;;26.50;;
30096;SDS011;16915;51.466;3.610;2023-09-08T06:41:22;33.20;;;26.13;;
30096;SDS011;16915;51.466;3.610;2023-09-08T06:43:48;34.55;;;25.67;;
30096;SDS011;16915;51.466;3.610;2023-09-08T06:46:14;36.53;;;25.25;;
30096;SDS011;16915;51.466;3.610;2023-09-08T06:48:40;32.30;;;24.70;;
30096;SDS011;16915;51.466;3.610;2023-09-08T06:51:06;31.30;;;24.08;;
30096;SDS011;16915;51.466;3.610;2023-09-08T06:53:31;30.98;;;23.65;;
30096;SDS011;16915;51.466;3.610;2023-09-08T06:55:57;25.85;;;21.38;;
30096;SDS011;16915;51.466;3.610;2023-09-08T06:58:23;26.38;;;20.70;;
30096;SDS011;16915;51.466;3.610;2023-09-08T07:00:49;27.67;;;20.67;;
30096;SDS011;16915;51.466;3.610;2023-09-08T07:03:18;24.77;;;20.58;;
30096;SDS011;16915;51.466;3.610;2023-09-08T07:05:43;23.48;;;18.85;;
30096;SDS011;16915;51.466;3.610;2023-09-08T07:08:10;22.25;;;18.10;;
30096;SDS011;16915;51.466;3.610;2023-09-08T07:10:35;21.33;;;18.27;;
30096;SDS011;16915;51.466;3.610;2023-09-08T07:13:01;21.50;;;17.75;;
30096;SDS011;16915;51.466;3.610;2023-09-08T07:15:27;23.42;;;17.15;;
30096;SDS011;16915;51.466;3.610;2023-09-08T07:17:52;21.10;;;17.27;;
30096;SDS011;16915;51.466;3.610;2023-09-08T07:20:18;20.02;;;17.77;;
30096;SDS011;16915;51.466;3.610;2023-09-08T07:22:43;23.33;;;17.52;;
30096;SDS011;16915;51.466;3.610;2023-09-08T07:25:09;23.45;;;17.73;;
30096;SDS011;16915;51.466;3.610;2023-09-08T07:27:34;20.48;;;17.23;;
30096;SDS011;16915;51.466;3.610;2023-09-08T07:30:00;21.63;;;16.73;;
30096;SDS011;16915;51.466;3.610;2023-09-08T07:32:26;23.23;;;16.52;;
30096;SDS011;16915;51.466;3.610;2023-09-08T07:34:51;20.33;;;16.67;;
30096;SDS011;16915;51.466;3.610;2023-09-08T07:37:23;20.33;;;15.48;;
30096;SDS011;16915;51.466;3.610;2023-09-08T07:39:49;18.10;;;15.88;;
30096;SDS011;16915;51.466;3.610;2023-09-08T07:42:17;18.63;;;16.60;;
30096;SDS011;16915;51.466;3.610;2023-09-08T07:44:43;16.88;;;14.93;;
30096;SDS011;16915;51.466;3.610;2023-09-08T07:47:09;18.95;;;15.23;;
30096;SDS011;16915;51.466;3.610;2023-09-08T07:49:35;18.90;;;15.13;;
30096;SDS011;16915;51.466;3.610;2023-09-08T07:52:01;18.80;;;14.80;;
30096;SDS011;16915;51.466;3.610;2023-09-08T07:54:26;18.27;;;15.52;;
30096;SDS011;16915;51.466;3.610;2023-09-08T07:56:52;18.48;;;15.32;;
30096;SDS011;16915;51.466;3.610;2023-09-08T07:59:17;21.52;;;15.68;;
30096;SDS011;16915;51.466;3.610;2023-09-08T08:01:43;21.20;;;15.85;;
30096;SDS011;16915;51.466;3.610;2023-09-08T08:04:09;17.95;;;15.52;;
30096;SDS011;16915;51.466;3.610;2023-09-08T08:06:34;20.58;;;16.05;;
30096;SDS011;16915;51.466;3.610;2023-09-08T08:09:00;24.17;;;16.67;;
30096;SDS011;16915;51.466;3.610;2023-09-08T08:11:26;17.77;;;15.82;;
30096;SDS011;16915;51.466;3.610;2023-09-08T08:13:53;26.40;;;16.67;;
30096;SDS011;16915;51.466;3.610;2023-09-08T08:16:18;18.90;;;15.65;;
30096;SDS011;16915;51.466;3.610;2023-09-08T08:18:45;19.88;;;15.80;;
30096;SDS011;16915;51.466;3.610;2023-09-08T08:21:10;20.70;;;15.90;;
30096;SDS011;16915;51.466;3.610;2023-09-08T08:23:36;19.40;;;16.52;;
30096;SDS011;16915;51.466;3.610;2023-09-08T08:26:03;24.40;;;17.83;;
30096;SDS011;16915;51.466;3.610;2023-09-08T08:28:29;17.02;;;15.10;;
30096;SDS011;16915;51.466;3.610;2023-09-08T08:30:54;20.90;;;16.38;;
30096;SDS011;16915;51.466;3.610;2023-09-08T08:33:20;19.83;;;16.10;;
30096;SDS011;16915;51.466;3.610;2023-09-08T08:35:50;18.23;;;15.25;;
30096;SDS011;16915;51.466;3.610;2023-09-08T08:38:17;20.10;;;15.97;;
30096;SDS011;16915;51.466;3.610;2023-09-08T08:40:43;18.50;;;14.82;;
30096;SDS011;16915;51.466;3.610;2023-09-08T08:43:08;18.08;;;16.17;;
30096;SDS011;16915;51.466;3.610;2023-09-08T08:45:34;17.75;;;14.63;;
30096;SDS011;16915;51.466;3.610;2023-09-08T08:48:04;19.42;;;15.38;;
30096;SDS011;16915;51.466;3.610;2023-09-08T08:50:31;16.45;;;14.77;;
30096;SDS011;16915;51.466;3.610;2023-09-08T08:52:57;22.58;;;15.65;;
30096;SDS011;16915;51.466;3.610;2023-09-08T08:55:26;22.08;;;15.90;;
30096;SDS011;16915;51.466;3.610;2023-09-08T08:57:55;17.67;;;15.55;;
30096;SDS011;16915;51.466;3.610;2023-09-08T09:00:28;22.40;;;15.13;;
30096;SDS011;16915;51.466;3.610;2023-09-08T09:02:54;18.15;;;15.35;;
30096;SDS011;16915;51.466;3.610;2023-09-08T09:05:23;19.63;;;15.40;;
30096;SDS011;16915;51.466;3.610;2023-09-08T09:07:49;18.10;;;14.82;;
30096;SDS011;16915;51.466;3.610;2023-09-08T09:10:16;20.58;;;15.68;;
30096;SDS011;16915;51.466;3.610;2023-09-08T09:12:42;20.02;;;14.82;;
30096;SDS011;16915;51.466;3.610;2023-09-08T09:15:07;17.38;;;14.80;;
30096;SDS011;16915;51.466;3.610;2023-09-08T09:17:34;18.77;;;15.13;;
30096;SDS011;16915;51.466;3.610;2023-09-08T09:22:40;22.90;;;16.08;;
30096;SDS011;16915;51.466;3.610;2023-09-08T09:25:05;19.58;;;16.00;;
30096;SDS011;16915;51.466;3.610;2023-09-08T09:27:33;23.77;;;17.48;;
30096;SDS011;16915;51.466;3.610;2023-09-08T09:30:07;23.13;;;16.70;;
30096;SDS011;16915;51.466;3.610;2023-09-08T09:32:33;20.58;;;16.70;;
30096;SDS011;16915;51.466;3.610;2023-09-08T09:35:00;21.83;;;17.35;;
30096;SDS011;16915;51.466;3.610;2023-09-08T09:37:26;18.13;;;16.23;;
30096;SDS011;16915;51.466;3.610;2023-09-08T09:39:52;21.05;;;16.77;;
30096;SDS011;16915;51.466;3.610;2023-09-08T09:42:18;20.10;;;15.73;;
30096;SDS011;16915;51.466;3.610;2023-09-08T09:44:49;17.25;;;15.48;;
30096;SDS011;16915;51.466;3.610;2023-09-08T09:47:18;17.35;;;14.70;;
30096;SDS011;16915;51.466;3.610;2023-09-08T09:49:45;14.95;;;13.35;;
30096;SDS011;16915;51.466;3.610;2023-09-08T09:52:11;14.82;;;13.32;;
30096;SDS011;16915;51.466;3.610;2023-09-08T09:54:41;15.95;;;12.32;;
30096;SDS011;16915;51.466;3.610;2023-09-08T09:57:08;15.88;;;12.65;;
30096;SDS011;16915;51.466;3.610;2023-09-08T09:59:37;14.63;;;11.80;;
30096;SDS011;16915;51.466;3.610;2023-09-08T10:02:08;11.53;;;10.43;;
30096;SDS011;16915;51.466;3.610;2023-09-08T10:04:40;10.23;;;7.82;;
30096;SDS011;16915;51.466;3.610;2023-09-08T10:07:06;8.88;;;7.00;;
30096;SDS011;16915;51.466;3.610;2023-09-08T10:09:32;7.32;;;6.72;;
30096;SDS011;16915;51.466;3.610;2023-09-08T10:11:59;8.55;;;6.70;;
30096;SDS011;16915;51.466;3.610;2023-09-08T10:14:30;7.60;;;6.40;;
30096;SDS011;16915;51.466;3.610;2023-09-08T10:16:59;11.55;;;6.78;;
30096;SDS011;16915;51.466;3.610;2023-09-08T10:19:25;8.45;;;7.70;;
30096;SDS011;16915;51.466;3.610;2023-09-08T10:21:51;14.65;;;9.27;;
30096;SDS011;16915;51.466;3.610;2023-09-08T10:24:26;9.95;;;8.95;;
30096;SDS011;16915;51.466;3.610;2023-09-08T10:27:10;9.93;;;6.57;;
30096;SDS011;16915;51.466;3.610;2023-09-08T10:29:37;8.80;;;7.22;;
30096;SDS011;16915;51.466;3.610;2023-09-08T10:32:03;11.20;;;7.80;;
30096;SDS011;16915;51.466;3.610;2023-09-08T10:34:30;6.25;;;5.72;;
30096;SDS011;16915;51.466;3.610;2023-09-08T10:36:57;9.93;;;6.28;;
30096;SDS011;16915;51.466;3.610;2023-09-08T10:39:56;8.75;;;8.05;;
30096;SDS011;16915;51.466;3.610;2023-09-08T10:47:23;9.90;;;8.43;;
30096;SDS011;16915;51.466;3.610;2023-09-08T10:49:50;8.93;;;8.07;;
30096;SDS011;16915;51.466;3.610;2023-09-08T10:52:18;9.57;;;8.52;;
30096;SDS011;16915;51.466;3.610;2023-09-08T10:54:48;10.45;;;8.98;;
30096;SDS011;16915;51.466;3.610;2023-09-08T10:57:16;9.95;;;8.95;;
30096;SDS011;16915;51.466;3.610;2023-09-08T10:59:51;10.30;;;9.25;;
30096;SDS011;16915;51.466;3.610;2023-09-08T11:05:11;11.98;;;9.73;;
30096;SDS011;16915;51.466;3.610;2023-09-08T11:07:39;14.52;;;9.73;;
30096;SDS011;16915;51.466;3.610;2023-09-08T11:10:06;11.27;;;10.18;;
30096;SDS011;16915;51.466;3.610;2023-09-08T11:12:33;12.52;;;10.27;;
30096;SDS011;16915;51.466;3.610;2023-09-08T11:14:59;10.75;;;9.70;;
30096;SDS011;16915;51.466;3.610;2023-09-08T11:17:27;14.68;;;11.82;;
30096;SDS011;16915;51.466;3.610;2023-09-08T11:19:56;14.23;;;11.32;;
30096;SDS011;16915;51.466;3.610;2023-09-08T11:22:24;12.93;;;11.73;;
30096;SDS011;16915;51.466;3.610;2023-09-08T11:24:51;10.90;;;9.88;;
30096;SDS011;16915;51.466;3.610;2023-09-08T11:27:18;14.82;;;10.23;;
30096;SDS011;16915;51.466;3.610;2023-09-08T11:29:44;10.80;;;9.80;;
30096;SDS011;16915;51.466;3.610;2023-09-08T11:32:10;11.63;;;10.45;;
30096;SDS011;16915;51.466;3.610;2023-09-08T11:34:36;10.77;;;9.77;;
30096;SDS011;16915;51.466;3.610;2023-09-08T11:37:11;14.57;;;10.45;;
30096;SDS011;16915;51.466;3.610;2023-09-08T11:39:41;12.93;;;10.30;;
30096;SDS011;16915;51.466;3.610;2023-09-08T11:42:08;12.83;;;9.87;;
30096;SDS011;16915;51.466;3.610;2023-09-08T11:44:35;11.70;;;10.07;;
30096;SDS011;16915;51.466;3.610;2023-09-08T11:47:02;10.82;;;9.65;;
30096;SDS011;16915;51.466;3.610;2023-09-08T11:49:35;12.00;;;10.80;;
30096;SDS011;16915;51.466;3.610;2023-09-08T11:52:01;12.02;;;10.32;;
30096;SDS011;16915;51.466;3.610;2023-09-08T11:54:27;12.68;;;11.05;;
30096;SDS011;16915;51.466;3.610;2023-09-08T11:56:53;11.02;;;9.75;;
30096;SDS011;16915;51.466;3.610;2023-09-08T11:59:20;12.20;;;10.98;;
30096;SDS011;16915;51.466;3.610;2023-09-08T12:01:45;11.95;;;10.85;;
30096;SDS011;16915;51.466;3.610;2023-09-08T12:04:17;10.35;;;9.43;;
30096;SDS011;16915;51.466;3.610;2023-09-08T12:06:49;9.73;;;8.82;;
30096;SDS011;16915;51.466;3.610;2023-09-08T12:09:17;8.27;;;7.60;;
30096;SDS011;16915;51.466;3.610;2023-09-08T12:11:43;10.38;;;9.30;;
30096;SDS011;16915;51.466;3.610;2023-09-08T12:14:10;7.90;;;7.22;;
30096;SDS011;16915;51.466;3.610;2023-09-08T12:16:36;5.15;;;4.65;;
30096;SDS011;16915;51.466;3.610;2023-09-08T12:19:02;5.10;;;3.80;;
30096;SDS011;16915;51.466;3.610;2023-09-08T12:21:28;3.67;;;2.70;;
30096;SDS011;16915;51.466;3.610;2023-09-08T12:23:54;4.57;;;4.18;;
30096;SDS011;16915;51.466;3.610;2023-09-08T12:26:20;6.70;;;4.43;;
30096;SDS011;16915;51.466;3.610;2023-09-08T12:28:46;7.10;;;6.20;;
30096;SDS011;16915;51.466;3.610;2023-09-08T12:31:13;10.32;;;8.85;;
30096;SDS011;16915;51.466;3.610;2023-09-08T12:33:39;11.93;;;9.52;;
30096;SDS011;16915;51.466;3.610;2023-09-08T12:36:14;18.38;;;16.63;;
30096;SDS011;16915;51.466;3.610;2023-09-08T12:38:46;18.48;;;16.52;;
30096;SDS011;16915;51.466;3.610;2023-09-08T12:41:13;28.08;;;25.08;;
30096;SDS011;16915;51.466;3.610;2023-09-08T12:43:38;22.85;;;20.65;;
30096;SDS011;16915;51.466;3.610;2023-09-08T12:46:04;24.63;;;21.88;;
30096;SDS011;16915;51.466;3.610;2023-09-08T12:48:29;26.27;;;23.48;;
30096;SDS011;16915;51.466;3.610;2023-09-08T12:50:55;25.67;;;22.15;;
30096;SDS011;16915;51.466;3.610;2023-09-08T12:53:21;25.02;;;21.38;;
30096;SDS011;16915;51.466;3.610;2023-09-08T12:55:48;23.00;;;20.55;;
30096;SDS011;16915;51.466;3.610;2023-09-08T12:58:14;27.13;;;24.23;;
30096;SDS011;16915;51.466;3.610;2023-09-08T13:00:40;25.75;;;23.17;;
30096;SDS011;16915;51.466;3.610;2023-09-08T13:03:05;27.27;;;21.67;;
30096;SDS011;16915;51.466;3.610;2023-09-08T13:05:31;30.83;;;22.38;;
30096;SDS011;16915;51.466;3.610;2023-09-08T13:07:56;22.38;;;20.13;;
30096;SDS011;16915;51.466;3.610;2023-09-08T13:10:22;24.15;;;21.60;;
30096;SDS011;16915;51.466;3.610;2023-09-08T13:12:47;21.65;;;19.38;;
30096;SDS011;16915;51.466;3.610;2023-09-08T13:15:13;19.50;;;17.40;;
30096;SDS011;16915;51.466;3.610;2023-09-08T13:17:39;18.65;;;16.75;;
30096;SDS011;16915;51.466;3.610;2023-09-08T13:20:05;18.25;;;16.08;;
30096;SDS011;16915;51.466;3.610;2023-09-08T13:22:32;17.77;;;16.02;;
30096;SDS011;16915;51.466;3.610;2023-09-08T13:24:57;19.58;;;15.65;;
30096;SDS011;16915;51.466;3.610;2023-09-08T13:27:23;18.02;;;16.30;;
30096;SDS011;16915;51.466;3.610;2023-09-08T13:29:48;18.33;;;16.45;;
30096;SDS011;16915;51.466;3.610;2023-09-08T13:32:14;19.05;;;17.15;;
30096;SDS011;16915;51.466;3.610;2023-09-08T13:34:40;20.42;;;18.33;;
30096;SDS011;16915;51.466;3.610;2023-09-08T13:37:08;17.08;;;15.25;;
30096;SDS011;16915;51.466;3.610;2023-09-08T13:39:34;17.60;;;15.80;;
30096;SDS011;16915;51.466;3.610;2023-09-08T13:42:00;21.80;;;17.55;;
30096;SDS011;16915;51.466;3.610;2023-09-08T13:44:26;17.13;;;15.38;;
30096;SDS011;16915;51.466;3.610;2023-09-08T13:46:53;20.20;;;17.38;;
30096;SDS011;16915;51.466;3.610;2023-09-08T13:49:19;19.45;;;17.55;;
30096;SDS011;16915;51.466;3.610;2023-09-08T13:51:45;20.17;;;17.58;;
30096;SDS011;16915;51.466;3.610;2023-09-08T13:54:12;23.65;;;21.13;;
30096;SDS011;16915;51.466;3.610;2023-09-08T13:56:38;23.60;;;20.10;;
30096;SDS011;16915;51.466;3.610;2023-09-08T13:59:05;23.92;;;19.40;;
30096;SDS011;16915;51.466;3.610;2023-09-08T14:01:32;21.80;;;19.73;;
30096;SDS011;16915;51.466;3.610;2023-09-08T14:03:59;27.52;;;24.45;;
30096;SDS011;16915;51.466;3.610;2023-09-08T14:06:25;26.45;;;22.27;;
30096;SDS011;16915;51.466;3.610;2023-09-08T14:08:52;23.48;;;21.15;;
30096;SDS011;16915;51.466;3.610;2023-09-08T14:11:18;26.27;;;22.15;;
30096;SDS011;16915;51.466;3.610;2023-09-08T14:13:44;25.40;;;22.65;;
30096;SDS011;16915;51.466;3.610;2023-09-08T14:16:10;27.52;;;24.70;;
30096;SDS011;16915;51.466;3.610;2023-09-08T14:18:37;31.27;;;26.20;;
30096;SDS011;16915;51.466;3.610;2023-09-08T14:21:02;30.75;;;27.35;;
30096;SDS011;16915;51.466;3.610;2023-09-08T14:23:29;31.60;;;28.25;;
30096;SDS011;16915;51.466;3.610;2023-09-08T14:25:54;33.25;;;29.42;;
30096;SDS011;16915;51.466;3.610;2023-09-08T14:28:20;30.17;;;26.27;;
30096;SDS011;16915;51.466;3.610;2023-09-08T14:30:46;29.83;;;26.52;;
30096;SDS011;16915;51.466;3.610;2023-09-08T14:33:12;28.75;;;23.92;;